Terminal Aerodrome Forecast
Issued by NWS

Home | Current Version | Previous Version | Text Only | Print | Product List | Glossary On
Versions: 1 2 3 4 5 6 7 8 9 10 11 12 13 14 15 16 17 18 19
891
FTUS43 KBIS 121739
TAFDIK
TAF
KDIK 121739Z 1218/1318 10006KT P6SM BKN015
      TEMPO 1218/1221 BKN035
     FM122100 11007KT P6SM BKN050
     FM130500 14013KT P6SM -SHSN OVC020
     FM131000 15014KT P6SM OVC015=

USA.gov is the U.S. government's official web portal to all federal, state and local government web resources and services.